Time;durP1;ratioP1;P1;durP2;ratioP2;P2;SDS_P1;SDS_P2;PMS_P1;PMS_P2;Temp;Humidity;BMP_temperature;BMP_pressure;BME280_temperature;BME280_humidity;BME280_pressure;Samples;Min_cycle;Max_cycle;Signal;HPM_P1;HPM_P2
2021/09/26 00:00:37;;;;;;;4.20;2.30;;;;;;;12.05;79.31;100444.69;1756567;80;21246;-64
2021/09/26 00:03:12;;;;;;;4.12;2.17;;;;;;;12.06;79.29;100450.30;1732603;82;21327;-67
2021/09/26 00:05:47;;;;;;;3.08;2.30;;;;;;;12.06;79.24;100448.98;1762940;81;21327;-64
2021/09/26 00:08:20;;;;;;;3.13;2.00;;;;;;;12.05;79.26;100440.75;1726034;82;21319;-65
2021/09/26 00:10:54;;;;;;;2.87;2.10;;;;;;;12.05;79.30;100445.52;1737768;81;21275;-65
2021/09/26 00:13:31;;;;;;;3.80;2.65;;;;;;;12.06;79.38;100448.98;1729575;82;21337;-67
2021/09/26 00:16:05;;;;;;;3.92;2.30;;;;;;;12.07;79.41;100435.70;1734541;82;21185;-63
2021/09/26 00:18:43;;;;;;;3.50;2.70;;;;;;;12.10;79.39;100440.69;1728357;82;21301;-64
2021/09/26 00:21:21;;;;;;;3.33;2.72;;;;;;;12.11;79.40;100446.26;1762219;81;21240;-65
2021/09/26 00:23:56;;;;;;;5.80;2.27;;;;;;;12.13;79.39;100439.06;1752627;80;21362;-63
2021/09/26 00:26:28;;;;;;;2.60;2.40;;;;;;;12.14;79.33;100434.17;1752711;81;21827;-62
2021/09/26 00:29:08;;;;;;;4.10;2.50;;;;;;;12.15;79.28;100421.88;1757510;80;21243;-63
2021/09/26 00:31:47;;;;;;;2.95;2.65;;;;;;;12.13;79.35;100424.63;1764888;80;21324;-64
2021/09/26 00:34:21;;;;;;;3.45;2.20;;;;;;;12.12;79.43;100415.59;1760787;81;21164;-64
2021/09/26 00:36:54;;;;;;;3.73;2.77;;;;;;;12.13;79.49;100414.14;1753129;81;21259;-64
2021/09/26 00:39:31;;;;;;;3.45;2.65;;;;;;;12.16;79.54;100407.77;1761200;81;21279;-64
2021/09/26 00:42:06;;;;;;;2.83;2.58;;;;;;;12.21;79.52;100412.12;1755058;80;21288;-64
2021/09/26 00:44:41;;;;;;;6.10;2.80;;;;;;;12.24;79.40;100401.34;1755842;81;21311;-65
2021/09/26 00:47:17;;;;;;;5.25;2.92;;;;;;;12.25;79.32;100401.70;1725485;82;21233;-62
2021/09/26 00:49:51;;;;;;;4.40;2.85;;;;;;;12.25;79.27;100402.17;1737979;82;21758;-63
2021/09/26 00:52:27;;;;;;;3.77;2.83;;;;;;;12.28;79.29;100396.61;1726977;82;21279;-64
2021/09/26 00:55:02;;;;;;;4.40;3.02;;;;;;;12.31;79.23;100389.77;1747669;81;21141;-64
2021/09/26 00:57:38;;;;;;;2.60;2.40;;;;;;;12.32;79.15;100386.19;1727060;82;21273;-64
2021/09/26 01:00:14;;;;;;;4.75;2.60;;;;;;;12.34;78.99;100382.45;1734228;82;21220;-63
2021/09/26 01:02:47;;;;;;;3.75;3.33;;;;;;;12.33;78.94;100382.09;1758042;81;21165;-63
2021/09/26 01:05:20;;;;;;;4.47;3.07;;;;;;;12.33;78.89;100383.89;1770084;80;21181;-63
2021/09/26 01:08:22;;;;;;;4.78;2.70;;;;;;;12.32;78.87;100380.94;1742959;81;21270;-63
2021/09/26 01:11:10;;;;;;;3.70;2.60;;;;;;;12.34;78.89;100378.99;1727121;82;21784;-62
2021/09/26 01:14:06;;;;;;;3.33;2.52;;;;;;;12.33;78.80;100382.09;1761556;80;21283;-65
2021/09/26 01:16:45;;;;;;;3.08;2.45;;;;;;;12.31;78.84;100383.21;1748843;80;21155;-65
2021/09/26 01:19:37;;;;;;;3.47;2.75;;;;;;;12.32;79.01;100376.53;1747087;80;21284;-64
2021/09/26 01:22:20;;;;;;;4.03;2.80;;;;;;;12.33;79.08;100378.16;1755461;81;21310;-64
2021/09/26 01:25:36;;;;;;;4.57;3.23;;;;;;;12.35;79.32;100380.15;1749272;80;21373;-64
2021/09/26 01:28:26;;;;;;;5.62;2.75;;;;;;;12.36;79.41;100373.94;1751686;81;21160;-62
2021/09/26 01:31:10;;;;;;;5.72;3.27;;;;;;;12.35;79.51;100368.34;1732352;82;21380;-67
2021/09/26 01:34:00;;;;;;;4.95;3.30;;;;;;;12.35;79.56;100367.50;1725900;82;21275;-65
2021/09/26 01:36:42;;;;;;;3.92;2.98;;;;;;;12.32;79.71;100367.81;1764140;81;21179;-63
2021/09/26 01:39:26;;;;;;;7.33;3.10;;;;;;;12.30;79.93;100365.31;1761403;81;21160;-64
2021/09/26 01:42:24;;;;;;;4.62;2.83;;;;;;;12.31;80.08;100360.90;1756833;81;21273;-63
2021/09/26 01:44:59;;;;;;;5.60;3.37;;;;;;;12.31;80.18;100356.96;1750864;81;21176;-63
2021/09/26 01:47:46;;;;;;;9.30;3.50;;;;;;;12.31;80.41;100350.40;1741243;81;21993;-64
2021/09/26 01:50:19;;;;;;;5.03;3.20;;;;;;;12.34;80.51;100347.02;1726791;82;21275;-65
2021/09/26 01:52:56;;;;;;;4.75;2.95;;;;;;;12.34;80.57;100342.24;1728448;81;21818;-65
2021/09/26 01:55:30;;;;;;;4.53;2.92;;;;;;;12.33;80.67;100340.57;1731812;82;21223;-64
2021/09/26 01:58:09;;;;;;;4.55;3.27;;;;;;;12.31;80.86;100334.64;1729516;82;21330;-65
2021/09/26 02:00:47;;;;;;;5.70;3.60;;;;;;;12.30;81.15;100334.33;1718955;82;21219;-63
2021/09/26 02:03:32;;;;;;;6.10;3.55;;;;;;;12.25;81.54;100334.77;1756550;80;21172;-64
2021/09/26 02:06:01;;;;;;;7.08;3.70;;;;;;;12.21;82.02;100329.92;1734014;81;21204;-64
2021/09/26 02:08:42;;;;;;;4.65;3.85;;;;;;;12.19;82.49;100323.52;1752570;80;21279;-62
2021/09/26 02:11:15;;;;;;;7.03;4.00;;;;;;;12.15;82.91;100320.37;1749793;81;21290;-64
2021/09/26 02:13:49;;;;;;;10.07;4.30;;;;;;;12.11;83.37;100308.96;1754106;80;21188;-64
2021/09/26 02:16:24;;;;;;;;;;;;;;;12.09;83.74;100303.03;1756582;80;22091;-63
2021/09/26 02:19:08;;;;;;;6.70;4.05;;;;;;;12.06;84.06;100300.72;1758647;81;20195;-62
2021/09/26 02:21:42;;;;;;;6.97;4.08;;;;;;;12.03;84.43;100306.25;1763212;80;21382;-66
2021/09/26 02:24:17;;;;;;;6.75;4.55;;;;;;;12.01;84.82;100306.38;1756974;80;21144;-68
2021/09/26 02:26:58;;;;;;;6.65;4.12;;;;;;;12.00;85.03;100311.30;1748156;81;21300;-67
2021/09/26 02:29:32;;;;;;;6.55;4.30;;;;;;;12.02;85.26;100309.35;1762281;81;21244;-63
2021/09/26 02:32:09;;;;;;;6.33;4.72;;;;;;;12.00;85.39;100307.36;1759407;81;21208;-64
2021/09/26 02:34:43;;;;;;;6.72;4.42;;;;;;;11.99;85.54;100305.70;1752317;81;21830;-63
2021/09/26 02:37:19;;;;;;;8.57;5.07;;;;;;;11.97;85.76;100302.88;1747519;81;21284;-64
2021/09/26 02:39:54;;;;;;;7.35;4.50;;;;;;;11.96;86.23;100302.07;1755386;80;21887;-63
2021/09/26 02:42:49;;;;;;;7.97;4.67;;;;;;;11.95;86.28;100309.59;1726696;82;21224;-63
2021/09/26 02:45:44;;;;;;;8.95;4.95;;;;;;;11.95;86.57;100303.51;1723600;82;21314;-61
2021/09/26 02:48:25;;;;;;;10.75;5.12;;;;;;;11.94;86.72;100309.23;1718431;82;21715;-66
2021/09/26 02:51:00;;;;;;;8.78;4.90;;;;;;;11.95;87.00;100294.33;1717818;82;21824;-66
2021/09/26 02:53:38;;;;;;;8.85;5.25;;;;;;;11.97;87.16;100304.19;1717500;82;21322;-64
2021/09/26 02:56:11;;;;;;;7.87;4.83;;;;;;;11.97;87.30;100302.88;1729732;82;21215;-64
2021/09/26 02:58:51;;;;;;;8.13;5.35;;;;;;;11.96;87.50;100303.86;1724548;82;21192;-64
2021/09/26 03:01:23;;;;;;;7.17;4.83;;;;;;;11.96;87.72;100298.62;1725605;82;21298;-64
2021/09/26 03:04:05;;;;;;;8.63;5.70;;;;;;;11.94;87.97;100293.49;1717213;82;21298;-64
2021/09/26 03:06:40;;;;;;;7.83;5.08;;;;;;;11.93;88.13;100286.61;1761251;80;21848;-63
2021/09/26 03:09:13;;;;;;;7.57;5.53;;;;;;;11.90;88.45;100282.95;1731546;82;21307;-65
2021/09/26 03:11:48;;;;;;;7.58;4.78;;;;;;;11.89;88.74;100286.53;1728779;82;21586;-64
2021/09/26 03:14:21;;;;;;;7.42;5.45;;;;;;;11.89;89.08;100279.17;1725737;82;21191;-64
2021/09/26 03:17:01;;;;;;;8.63;5.33;;;;;;;11.89;89.31;100276.55;1723744;82;21282;-65
2021/09/26 03:19:38;;;;;;;7.85;5.03;;;;;;;11.89;89.57;100269.48;1736448;82;21822;-66
2021/09/26 03:22:12;;;;;;;10.98;5.15;;;;;;;11.93;89.77;100267.41;1727135;82;21292;-63
2021/09/26 03:24:45;;;;;;;7.17;4.97;;;;;;;11.94;89.92;100262.52;1720158;82;21279;-64
2021/09/26 03:27:20;;;;;;;7.78;4.53;;;;;;;11.95;90.07;100265.47;1728082;82;21199;-64
2021/09/26 03:29:57;;;;;;;8.03;4.83;;;;;;;11.96;90.29;100256.16;1735973;82;21180;-63
2021/09/26 03:32:34;;;;;;;6.28;4.72;;;;;;;11.98;90.45;100256.84;1730850;82;21304;-64
2021/09/26 03:35:14;;;;;;;6.58;4.87;;;;;;;12.00;90.55;100261.45;1748424;80;21262;-63
2021/09/26 03:37:49;;;;;;;7.08;4.28;;;;;;;12.02;90.66;100270.47;1752372;81;21172;-68
2021/09/26 03:40:24;;;;;;;7.67;4.58;;;;;;;12.05;90.73;100266.26;1763486;81;21287;-63
2021/09/26 03:43:09;;;;;;;6.83;4.53;;;;;;;12.08;90.83;100272.53;1747231;80;21282;-62
2021/09/26 03:45:50;;;;;;;6.60;4.05;;;;;;;12.13;90.95;100283.42;1722140;82;21317;-64
2021/09/26 03:48:24;;;;;;;6.75;4.70;;;;;;;12.16;90.95;100279.17;1719011;82;21183;-65
2021/09/26 03:50:58;;;;;;;5.92;3.90;;;;;;;12.17;90.87;100267.72;1733848;82;21196;-64
2021/09/26 03:53:31;;;;;;;7.45;4.05;;;;;;;12.18;90.89;100266.73;1722784;82;21718;-62
2021/09/26 03:56:06;;;;;;;7.50;3.87;;;;;;;12.20;90.96;100257.42;1722684;82;21322;-68
2021/09/26 03:58:45;;;;;;;6.03;3.83;;;;;;;12.22;91.01;100260.72;1733220;82;21161;-64
2021/09/26 04:01:20;;;;;;;4.25;3.65;;;;;;;12.24;91.03;100253.52;1755862;81;21288;-63
2021/09/26 04:03:53;;;;;;;6.67;3.65;;;;;;;12.25;91.03;100246.00;1720555;82;21322;-63
2021/09/26 04:06:28;;;;;;;4.78;3.33;;;;;;;12.29;91.10;100251.28;1725753;82;21721;-64
2021/09/26 04:09:02;;;;;;;;;;;;;;;12.31;91.08;100248.86;1731585;82;21187;-64
2021/09/26 04:11:38;;;;;;;5.17;3.80;;;;;;;12.35;91.07;100252.83;1694956;83;20188;-64
2021/09/26 04:14:12;;;;;;;5.17;3.45;;;;;;;12.37;91.10;100244.83;1708678;82;21311;-64
2021/09/26 04:16:49;;;;;;;4.70;3.27;;;;;;;12.39;91.03;100233.20;1702474;83;21293;-64
2021/09/26 04:19:21;;;;;;;5.25;3.58;;;;;;;12.43;91.02;100233.23;1706328;83;21779;-64
2021/09/26 04:22:00;;;;;;;5.92;3.75;;;;;;;12.44;90.95;100230.93;1698292;83;21240;-64
2021/09/26 04:24:37;;;;;;;5.95;3.22;;;;;;;12.48;90.93;100231.47;1753685;81;21315;-64
2021/09/26 04:27:11;;;;;;;6.03;3.52;;;;;;;12.50;90.95;100230.36;1760249;80;21364;-64
2021/09/26 04:29:45;;;;;;;5.60;3.27;;;;;;;12.56;90.95;100234.19;1752952;80;21245;-65
2021/09/26 04:32:23;;;;;;;7.33;3.47;;;;;;;12.58;90.89;100230.92;1766735;81;21279;-64
2021/09/26 04:34:58;;;;;;;4.55;3.30;;;;;;;12.61;90.81;100233.27;1749996;81;21284;-64
2021/09/26 04:37:34;;;;;;;4.67;3.77;;;;;;;12.61;90.85;100231.95;1755773;80;21365;-64
2021/09/26 04:40:10;;;;;;;4.15;2.77;;;;;;;12.64;90.81;100232.45;1748935;81;21278;-64
2021/09/26 04:42:49;;;;;;;4.12;3.15;;;;;;;12.65;90.89;100234.13;1761892;80;21196;-67
2021/09/26 04:45:27;;;;;;;4.92;3.12;;;;;;;12.68;90.87;100236.42;1730916;82;21731;-64
2021/09/26 04:48:02;;;;;;;6.33;3.42;;;;;;;12.72;90.95;100233.86;1723641;82;21255;-64
2021/09/26 04:50:38;;;;;;;5.87;2.67;;;;;;;12.75;90.79;100231.42;1721636;82;21180;-64
2021/09/26 04:53:16;;;;;;;5.47;3.20;;;;;;;12.74;90.87;100225.34;1735360;82;21219;-64
2021/09/26 04:55:51;;;;;;;6.17;3.20;;;;;;;12.77;90.96;100234.23;1732890;82;21326;-65
2021/09/26 04:58:33;;;;;;;5.80;3.70;;;;;;;12.80;91.09;100227.34;1721235;82;21178;-68
2021/09/26 05:01:06;;;;;;;5.25;3.52;;;;;;;12.83;91.19;100230.16;1720716;82;21286;-64
2021/09/26 05:03:43;;;;;;;4.50;3.60;;;;;;;12.87;91.27;100228.91;1725341;82;21741;-64
2021/09/26 05:06:20;;;;;;;7.20;3.52;;;;;;;12.94;91.35;100226.49;1725943;82;21403;-64
2021/09/26 05:08:53;;;;;;;4.70;3.35;;;;;;;13.03;91.35;100230.34;1721321;82;21909;-62
2021/09/26 05:11:26;;;;;;;;;;;;;;;13.12;91.31;100224.20;1728752;82;21153;-63
2021/09/26 05:13:59;;;;;;;6.60;3.60;;;;;;;13.19;91.13;100218.67;1699261;83;20191;-63
2021/09/26 05:16:34;;;;;;;5.60;3.20;;;;;;;13.25;91.07;100222.02;1725777;82;21331;-64
2021/09/26 05:19:11;;;;;;;5.62;3.83;;;;;;;13.35;91.02;100217.97;1756578;80;21362;-63
2021/09/26 05:21:45;;;;;;;6.55;3.98;;;;;;;13.44;90.78;100215.23;1746616;80;21346;-67
2021/09/26 05:24:18;;;;;;;6.30;3.40;;;;;;;13.49;90.51;100222.66;1742251;81;21175;-63
2021/09/26 05:26:58;;;;;;;8.18;4.45;;;;;;;13.54;90.20;100219.56;1756479;80;21275;-66
2021/09/26 05:29:35;;;;;;;8.05;4.10;;;;;;;13.57;89.87;100217.91;1725850;82;21207;-64
2021/09/26 05:32:11;;;;;;;6.22;4.30;;;;;;;13.62;89.85;100211.69;1728068;82;21171;-67
2021/09/26 05:34:45;;;;;;;8.30;4.33;;;;;;;13.71;89.71;100206.83;1729992;82;21766;-64
2021/09/26 05:37:18;;;;;;;7.12;3.40;;;;;;;13.77;89.47;100216.71;1750273;80;21199;-64
2021/09/26 05:39:56;;;;;;;7.05;4.03;;;;;;;13.80;89.21;100205.39;1745736;81;21211;-65
2021/09/26 05:42:29;;;;;;;7.95;4.17;;;;;;;13.86;89.04;100203.44;1753844;81;21334;-67
2021/09/26 05:45:08;;;;;;;6.53;4.37;;;;;;;13.94;88.88;100202.65;1740701;81;21183;-63
2021/09/26 05:47:43;;;;;;;10.00;4.58;;;;;;;14.08;88.71;100206.81;1741924;81;21664;-61
2021/09/26 05:50:21;;;;;;;9.05;4.85;;;;;;;14.18;88.34;100200.10;1752885;80;21274;-62
2021/09/26 05:52:59;;;;;;;7.47;4.78;;;;;;;14.23;87.81;100200.94;1751987;81;21283;-62
2021/09/26 05:55:32;;;;;;;11.88;4.72;;;;;;;14.28;87.57;100199.97;1758181;81;21303;-63
2021/09/26 05:58:08;;;;;;;8.63;4.37;;;;;;;14.33;87.20;100202.45;1746972;81;21298;-63
2021/09/26 06:00:46;;;;;;;8.70;4.62;;;;;;;14.42;86.86;100198.05;1760086;81;21230;-62
2021/09/26 06:03:20;;;;;;;10.82;4.50;;;;;;;14.52;86.54;100194.26;1757995;80;21378;-61
2021/09/26 06:05:53;;;;;;;10.82;4.90;;;;;;;14.70;86.12;100192.81;1729239;82;21181;-64
2021/09/26 06:08:30;;;;;;;8.48;4.42;;;;;;;15.08;85.53;100199.23;1727501;82;21230;-63
2021/09/26 06:11:06;;;;;;;9.58;4.20;;;;;;;15.73;84.73;100194.67;1725972;82;21151;-63
2021/09/26 06:13:41;;;;;;;9.65;4.67;;;;;;;16.24;82.77;100201.22;1731506;82;21894;-64
2021/09/26 06:16:19;;;;;;;9.23;3.95;;;;;;;16.45;80.68;100198.78;1762056;81;21789;-63
2021/09/26 06:18:57;;;;;;;7.80;4.08;;;;;;;16.52;79.39;100195.30;1754208;81;21193;-63
2021/09/26 06:21:42;;;;;;;7.47;3.92;;;;;;;16.56;78.52;100203.19;1752930;81;21283;-62
2021/09/26 06:24:16;;;;;;;6.75;3.85;;;;;;;16.52;77.93;100196.62;1756160;81;21307;-64
2021/09/26 06:26:51;;;;;;;6.60;3.80;;;;;;;16.47;77.43;100200.25;1724764;82;21206;-64
2021/09/26 06:29:28;;;;;;;7.40;3.98;;;;;;;16.38;77.27;100207.08;1731940;82;21276;-62
2021/09/26 06:32:04;;;;;;;7.35;4.78;;;;;;;16.29;77.33;100202.33;1717221;82;21285;-63
2021/09/26 06:34:37;;;;;;;9.00;4.70;;;;;;;16.22;77.24;100201.38;1764059;81;21268;-63
2021/09/26 06:37:10;;;;;;;9.80;4.28;;;;;;;16.15;77.18;100208.34;1759315;80;21282;-63
2021/09/26 06:39:50;;;;;;;5.50;3.62;;;;;;;16.09;77.20;100213.02;1752997;81;21274;-64
2021/09/26 06:42:26;;;;;;;10.30;4.22;;;;;;;16.01;77.12;100215.19;1758077;80;21184;-63
2021/09/26 06:45:03;;;;;;;6.85;4.20;;;;;;;15.93;77.29;100211.25;1712645;82;21781;-63
2021/09/26 06:47:39;;;;;;;5.53;3.52;;;;;;;15.88;77.19;100203.53;1725889;82;21342;-63
2021/09/26 06:50:13;;;;;;;12.35;3.58;;;;;;;16.00;77.29;100201.64;1743111;81;21282;-65
2021/09/26 06:52:51;;;;;;;6.67;3.67;;;;;;;16.42;76.85;100192.52;1737999;82;21818;-62
2021/09/26 06:55:29;;;;;;;9.25;3.60;;;;;;;16.95;75.40;100191.16;1730532;82;21175;-63
2021/09/26 06:58:09;;;;;;;4.95;2.87;;;;;;;17.71;73.48;100189.59;1749429;80;21184;-65
2021/09/26 07:00:47;;;;;;;8.55;3.00;;;;;;;19.24;70.38;100182.53;1722788;82;21339;-68
2021/09/26 07:03:20;;;;;;;5.85;3.10;;;;;;;21.19;65.19;100182.11;1727360;81;22055;-69
2021/09/26 07:05:58;;;;;;;6.05;2.92;;;;;;;23.03;58.16;100180.80;1662091;85;21334;-65
2021/09/26 07:08:32;;;;;;;9.05;2.60;;;;;;;24.61;53.70;100184.14;1691662;83;21327;-65
2021/09/26 07:11:04;;;;;;;5.60;2.67;;;;;;;25.97;49.23;100178.47;1704536;82;21318;-65
2021/09/26 07:13:42;;;;;;;10.40;2.77;;;;;;;26.71;46.53;100178.81;1710401;83;21315;-67
2021/09/26 07:16:15;;;;;;;4.65;3.30;;;;;;;26.62;44.34;100173.56;1707403;83;21865;-65
2021/09/26 07:18:52;;;;;;;4.33;2.95;;;;;;;25.84;44.08;100164.01;1708568;83;21318;-65
2021/09/26 07:21:24;;;;;;;5.53;3.08;;;;;;;24.79;45.31;100177.91;1710974;83;21742;-64
2021/09/26 07:24:02;;;;;;;6.62;2.50;;;;;;;23.82;47.15;100182.19;1708460;83;21266;-65
2021/09/26 07:26:41;;;;;;;9.13;2.72;;;;;;;22.91;48.42;100171.34;1704757;82;21263;-66
2021/09/26 07:29:16;;;;;;;6.67;3.47;;;;;;;22.49;49.84;100177.38;1715362;83;21913;-65
2021/09/26 07:31:54;;;;;;;10.55;3.33;;;;;;;22.75;50.40;100191.40;1703118;83;21334;-66
2021/09/26 07:34:28;;;;;;;3.35;2.55;;;;;;;22.92;49.77;100170.33;1713387;83;21771;-67
2021/09/26 07:37:05;;;;;;;6.10;2.70;;;;;;;22.78;49.99;100180.80;1714630;83;21323;-64
2021/09/26 07:39:39;;;;;;;4.15;2.30;;;;;;;22.45;50.21;100174.30;1708321;83;21263;-63
2021/09/26 07:42:14;;;;;;;4.15;2.42;;;;;;;21.87;50.13;100170.11;1710309;82;21310;-64
2021/09/26 07:44:58;;;;;;;7.55;2.70;;;;;;;21.19;51.93;100182.93;1678615;85;21173;-65
2021/09/26 07:47:36;;;;;;;6.62;3.22;;;;;;;20.64;53.48;100184.11;1677092;85;21509;-65
2021/09/26 07:50:14;;;;;;;5.55;2.47;;;;;;;20.24;54.84;100174.41;1678574;85;21237;-64
2021/09/26 07:52:49;;;;;;;4.42;2.77;;;;;;;19.98;55.58;100180.44;1678614;85;21312;-64
2021/09/26 07:55:27;;;;;;;6.62;3.40;;;;;;;19.81;56.53;100178.30;1677192;85;21157;-65
2021/09/26 07:58:04;;;;;;;5.22;2.85;;;;;;;19.66;57.15;100176.27;1678478;85;21316;-65
2021/09/26 08:00:39;;;;;;;8.48;4.15;;;;;;;19.49;57.00;100180.58;1678511;85;21323;-63
2021/09/26 08:03:15;;;;;;;11.48;3.17;;;;;;;19.42;57.56;100177.06;1678544;85;21280;-66
2021/09/26 08:05:52;;;;;;;6.97;3.22;;;;;;;19.41;57.64;100170.13;1678183;85;21319;-65
2021/09/26 08:08:25;;;;;;;6.70;3.10;;;;;;;19.43;57.77;100189.34;1676923;85;21172;-68
2021/09/26 08:11:03;;;;;;;4.85;2.47;;;;;;;19.92;57.58;100189.18;1678646;85;21204;-66
2021/09/26 08:13:37;;;;;;;6.92;2.47;;;;;;;21.10;55.84;100186.01;1678517;85;21278;-67
2021/09/26 08:16:11;;;;;;;4.30;1.98;;;;;;;22.28;52.75;100181.71;1677336;85;21169;-66
2021/09/26 08:18:46;;;;;;;4.42;2.25;;;;;;;22.71;49.43;100173.37;1678450;85;21179;-69
2021/09/26 08:21:22;;;;;;;3.77;2.27;;;;;;;22.70;48.29;100175.21;1678390;85;21320;-65
2021/09/26 08:23:55;;;;;;;10.30;2.20;;;;;;;22.63;47.86;100170.44;1682425;84;21158;-66
2021/09/26 08:26:32;;;;;;;4.47;2.17;;;;;;;22.83;47.82;100158.80;1680818;84;21320;-69
2021/09/26 08:29:10;;;;;;;7.72;2.08;;;;;;;23.63;46.26;100158.66;1706840;83;21139;-63
2021/09/26 08:31:44;;;;;;;9.25;1.92;;;;;;;25.54;41.07;100148.61;1712929;84;21302;-66
2021/09/26 08:34:22;;;;;;;6.22;1.98;;;;;;;25.54;41.07;100148.61;1751084;81;21296;-68
2021/09/26 08:36:58;;;;;;;4.42;1.70;;;;;;;26.22;39.18;100142.79;1749109;81;21223;-66
2021/09/26 08:39:35;;;;;;;4.97;1.70;;;;;;;26.77;37.76;100162.30;1749991;81;21816;-65
2021/09/26 08:42:16;;;;;;;6.12;3.15;;;;;;;27.22;37.30;100154.94;1753500;81;21281;-63
2021/09/26 08:44:53;;;;;;;7.35;4.12;;;;;;;27.13;36.58;100163.14;1754383;81;21306;-65
2021/09/26 08:47:28;;;;;;;5.03;3.37;;;;;;;26.89;36.56;100159.00;1755699;81;21353;-66
2021/09/26 08:50:05;;;;;;;3.62;2.20;;;;;;;27.04;36.16;100157.88;1740658;81;21713;-67
2021/09/26 08:52:40;;;;;;;6.55;1.98;;;;;;;26.89;36.56;100170.56;1742378;81;21191;-65
2021/09/26 08:55:14;;;;;;;7.35;1.72;;;;;;;26.31;36.75;100180.77;1740554;81;21278;-63
2021/09/26 08:57:51;;;;;;;5.00;1.77;;;;;;;25.09;38.58;100199.28;1741728;81;21732;-63
2021/09/26 09:00:28;;;;;;;2.83;1.60;;;;;;;23.75;42.05;100205.50;1738181;81;21183;-64
2021/09/26 09:03:03;;;;;;;4.35;1.62;;;;;;;22.66;44.33;100209.22;1740205;81;21803;-65
2021/09/26 09:05:40;;;;;;;4.12;2.05;;;;;;;21.74;46.44;100203.41;1748103;81;21302;-69
2021/09/26 09:08:15;;;;;;;5.78;2.37;;;;;;;21.12;48.25;100195.42;1740298;81;21191;-65
2021/09/26 09:11:00;;;;;;;7.42;2.00;;;;;;;20.73;49.59;100198.02;1744229;81;21261;-69
2021/09/26 09:13:45;;;;;;;4.25;1.75;;;;;;;21.14;51.13;100188.55;1742750;81;21281;-65
2021/09/26 09:16:19;;;;;;;5.83;2.05;;;;;;;21.97;50.56;100177.94;1736486;81;21182;-66
2021/09/26 09:18:56;;;;;;;4.08;1.57;;;;;;;22.81;48.04;100177.68;1740678;81;21790;-64
2021/09/26 09:21:36;;;;;;;6.65;1.45;;;;;;;23.51;45.62;100171.12;1737935;81;21713;-65
2021/09/26 09:24:24;;;;;;;3.05;1.30;;;;;;;24.13;43.89;100179.36;1739039;80;21286;-66
2021/09/26 09:26:55;;;;;;;1.37;1.17;;;;;;;24.62;42.40;100187.64;1742519;80;21188;-64
2021/09/26 09:29:34;;;;;;;1.72;0.90;;;;;;;24.97;40.51;100175.16;1736508;81;21163;-64
2021/09/26 09:32:22;;;;;;;4.03;1.20;;;;;;;25.08;38.25;100184.23;1718229;81;21183;-65
2021/09/26 09:34:53;;;;;;;2.27;1.15;;;;;;;24.95;37.09;100183.95;1746537;81;21325;-66
2021/09/26 09:37:28;;;;;;;4.40;1.00;;;;;;;24.95;37.09;100183.95;1738407;81;21191;-64
2021/09/26 09:40:19;;;;;;;3.45;1.27;;;;;;;24.60;37.35;100197.22;1745319;80;21255;-65
2021/09/26 09:42:54;;;;;;;2.17;1.17;;;;;;;24.08;37.35;100185.91;1720099;81;21300;-65
2021/09/26 09:45:41;;;;;;;3.27;0.98;;;;;;;23.32;37.61;100190.30;1715893;81;21896;-66
2021/09/26 09:48:23;;;;;;;4.58;1.10;;;;;;;22.60;39.10;100194.84;1731971;82;21835;-66
2021/09/26 09:51:08;;;;;;;3.42;1.05;;;;;;;22.00;40.37;100195.36;1684301;83;21296;-66
2021/09/26 09:53:46;;;;;;;1.92;1.17;;;;;;;21.72;41.68;100192.16;1708217;83;21860;-64
2021/09/26 09:56:27;;;;;;;2.30;1.07;;;;;;;21.49;42.97;100208.61;1750975;81;21313;-66
2021/09/26 09:59:02;;;;;;;4.25;1.50;;;;;;;21.17;43.06;100202.80;1738102;81;21401;-65
2021/09/26 10:01:39;;;;;;;4.95;1.15;;;;;;;20.75;43.87;100204.78;1747214;81;21315;-66
2021/09/26 10:04:21;;;;;;;5.00;1.50;;;;;;;20.52;44.44;100218.14;1749601;81;21871;-66
2021/09/26 10:06:51;;;;;;;5.60;1.60;;;;;;;20.38;45.38;100217.80;1748131;81;21345;-65
2021/09/26 10:09:29;;;;;;;2.35;1.17;;;;;;;20.21;46.12;100231.09;1743468;81;21220;-62
2021/09/26 10:12:09;;;;;;;3.00;0.95;;;;;;;19.98;45.06;100221.62;1756662;81;21341;-66
2021/09/26 10:14:43;;;;;;;3.65;0.70;;;;;;;19.78;44.44;100223.34;1760197;81;21286;-65
2021/09/26 10:17:20;;;;;;;4.00;0.80;;;;;;;19.60;42.88;100219.06;1749994;80;21266;-65
2021/09/26 10:19:54;;;;;;;4.42;0.90;;;;;;;19.44;42.93;100217.52;1741079;81;21136;-65
2021/09/26 10:22:28;;;;;;;4.65;0.90;;;;;;;19.33;43.55;100214.05;1744628;81;21353;-64
2021/09/26 10:25:01;;;;;;;1.80;0.70;;;;;;;19.20;42.71;100224.55;1744475;81;21172;-66
2021/09/26 10:27:34;;;;;;;5.17;0.53;;;;;;;19.08;42.50;100226.08;1742856;81;21900;-64
2021/09/26 10:30:09;;;;;;;3.90;0.70;;;;;;;18.92;42.63;100213.59;1723644;81;22379;-66
2021/09/26 10:32:50;;;;;;;3.22;0.68;;;;;;;18.81;42.88;100225.55;1725795;82;21163;-65
2021/09/26 10:35:26;;;;;;;4.75;0.85;;;;;;;18.79;43.32;100230.22;1754297;80;21271;-66
2021/09/26 10:37:59;;;;;;;3.00;0.80;;;;;;;18.84;43.40;100237.11;1741060;80;21369;-65
2021/09/26 10:40:34;;;;;;;3.40;0.65;;;;;;;18.94;43.45;100231.48;1757099;80;21314;-65
2021/09/26 10:43:29;;;;;;;1.62;0.78;;;;;;;18.95;43.39;100250.36;1750523;80;21168;-66
2021/09/26 10:46:25;;;;;;;2.67;1.00;;;;;;;18.88;43.49;100257.43;1747495;80;21357;-65
2021/09/26 10:49:15;;;;;;;1.90;0.75;;;;;;;18.64;43.61;100263.42;1745975;80;21358;-68
2021/09/26 10:51:54;;;;;;;1.85;0.82;;;;;;;18.38;44.81;100281.65;1750667;81;21267;-66
2021/09/26 10:54:33;;;;;;;3.40;1.00;;;;;;;18.28;45.93;100278.45;1757029;80;21208;-64
2021/09/26 10:57:18;;;;;;;4.12;0.95;;;;;;;18.18;46.39;100288.02;1756369;81;21160;-64
2021/09/26 11:00:02;;;;;;;1.00;0.60;;;;;;;18.08;46.75;100283.49;1695407;83;21189;-63
2021/09/26 11:02:49;;;;;;;0.72;0.53;;;;;;;18.02;47.03;100294.01;1725755;82;21819;-66
2021/09/26 11:05:42;;;;;;;4.50;0.72;;;;;;;17.98;47.38;100296.19;1732117;82;21268;-65
2021/09/26 11:08:29;;;;;;;1.27;0.62;;;;;;;18.05;47.01;100295.80;1715398;83;21288;-65
2021/09/26 11:11:05;;;;;;;1.60;0.42;;;;;;;18.13;46.19;100300.98;1740685;82;21638;-68
2021/09/26 11:13:40;;;;;;;1.77;0.60;;;;;;;18.17;45.05;100309.41;1715345;82;21149;-66
2021/09/26 11:16:17;;;;;;;4.10;0.60;;;;;;;18.12;45.10;100307.31;1721200;82;21297;-63
2021/09/26 11:18:53;;;;;;;4.53;0.60;;;;;;;18.07;45.60;100306.20;1742039;82;21307;-66
2021/09/26 11:21:42;;;;;;;2.22;0.47;;;;;;;18.10;45.72;100313.80;1743953;82;21913;-63
2021/09/26 11:24:35;;;;;;;1.65;0.50;;;;;;;18.09;44.69;100324.89;1733376;82;21170;-67
2021/09/26 11:27:21;;;;;;;6.75;0.50;;;;;;;18.00;44.63;100324.66;1746181;81;21267;-66
2021/09/26 11:30:09;;;;;;;3.30;0.50;;;;;;;17.97;44.36;100334.78;1751388;81;21321;-64
2021/09/26 11:32:47;;;;;;;2.90;0.55;;;;;;;17.96;44.50;100326.54;1748674;82;21884;-66
2021/09/26 11:35:28;;;;;;;1.80;0.40;;;;;;;17.99;43.74;100325.66;1755576;81;21290;-63
2021/09/26 11:38:11;;;;;;;3.55;0.40;;;;;;;18.08;43.27;100317.93;1741552;80;21172;-63
2021/09/26 11:41:02;;;;;;;2.70;0.60;;;;;;;18.17;43.84;100324.78;1754810;80;21282;-64
2021/09/26 11:44:00;;;;;;;1.15;0.50;;;;;;;18.23;44.09;100327.20;1743552;81;21791;-69
2021/09/26 11:46:39;;;;;;;0.78;0.40;;;;;;;18.29;43.90;100333.12;1741250;80;21298;-65
2021/09/26 11:49:16;;;;;;;1.35;0.42;;;;;;;18.25;43.50;100321.22;1727878;81;21344;-65
2021/09/26 11:51:52;;;;;;;1.02;0.60;;;;;;;18.18;43.60;100330.91;1726560;82;21335;-66
2021/09/26 11:54:26;;;;;;;1.87;0.80;;;;;;;18.15;43.98;100336.07;1674231;83;21308;-65
2021/09/26 11:57:03;;;;;;;2.12;0.57;;;;;;;18.13;43.17;100341.23;1649495;84;21213;-65
2021/09/26 11:59:39;;;;;;;1.45;0.60;;;;;;;18.14;42.34;100346.37;1715155;83;21762;-67
2021/09/26 12:02:14;;;;;;;2.22;0.42;;;;;;;18.14;41.47;100345.53;1727198;83;21295;-67
2021/09/26 12:04:49;;;;;;;0.70;0.30;;;;;;;18.13;41.80;100351.83;1727293;83;21223;-68
2021/09/26 12:07:28;;;;;;;1.27;0.50;;;;;;;18.13;41.59;100342.05;1719427;83;21353;-65
2021/09/26 12:10:03;;;;;;;2.27;0.30;;;;;;;18.09;41.52;100353.20;1675003;83;21298;-66
2021/09/26 12:12:38;;;;;;;2.00;0.50;;;;;;;18.00;41.62;100343.70;1726229;83;21350;-66
2021/09/26 12:15:17;;;;;;;10.13;0.95;;;;;;;17.93;41.80;100350.73;1727241;83;21271;-64